sensor_id;sensor_type;location;lat;lon;timestamp;pressure;altitude;pressure_sealevel;temperature;humidity
55490;BME280;44029;52.956;4.772;2023-03-23T00:00:46;100085.94;;;11.27;100.00
55490;BME280;44029;52.956;4.772;2023-03-23T00:03:12;100083.47;;;11.26;100.00
55490;BME280;44029;52.956;4.772;2023-03-23T00:05:38;100069.19;;;11.08;100.00
55490;BME280;44029;52.956;4.772;2023-03-23T00:08:06;100071.94;;;11.08;100.00
55490;BME280;44029;52.956;4.772;2023-03-23T00:10:35;100069.75;;;11.20;100.00
55490;BME280;44029;52.956;4.772;2023-03-23T00:13:00;100084.00;;;11.17;100.00
55490;BME280;44029;52.956;4.772;2023-03-23T00:15:27;100070.31;;;11.12;100.00
55490;BME280;44029;52.956;4.772;2023-03-23T00:17:55;100062.34;;;11.21;100.00
55490;BME280;44029;52.956;4.772;2023-03-23T00:20:28;100058.53;;;11.22;100.00
55490;BME280;44029;52.956;4.772;2023-03-23T00:22:54;100054.13;;;11.21;100.00
55490;BME280;44029;52.956;4.772;2023-03-23T00:25:25;100036.56;;;11.32;100.00
55490;BME280;44029;52.956;4.772;2023-03-23T00:27:51;100048.09;;;11.29;100.00
55490;BME280;44029;52.956;4.772;2023-03-23T00:30:16;100039.06;;;11.18;100.00
55490;BME280;44029;52.956;4.772;2023-03-23T00:32:43;100044.25;;;11.30;100.00
55490;BME280;44029;52.956;4.772;2023-03-23T00:35:08;100027.78;;;11.30;100.00
55490;BME280;44029;52.956;4.772;2023-03-23T00:37:34;100031.09;;;11.37;100.00
55490;BME280;44029;52.956;4.772;2023-03-23T00:40:01;100027.81;;;11.40;100.00
55490;BME280;44029;52.956;4.772;2023-03-23T00:42:26;100027.81;;;11.46;100.00
55490;BME280;44029;52.956;4.772;2023-03-23T00:44:53;100013.81;;;11.32;100.00
55490;BME280;44029;52.956;4.772;2023-03-23T00:47:25;100014.09;;;11.35;100.00
55490;BME280;44029;52.956;4.772;2023-03-23T00:49:50;99998.72;;;11.34;100.00
55490;BME280;44029;52.956;4.772;2023-03-23T00:52:17;99998.19;;;11.32;100.00
55490;BME280;44029;52.956;4.772;2023-03-23T00:54:42;99991.34;;;11.25;100.00
55490;BME280;44029;52.956;4.772;2023-03-23T00:57:08;100003.66;;;11.37;100.00
55490;BME280;44029;52.956;4.772;2023-03-23T00:59:35;99979.78;;;11.38;100.00
55490;BME280;44029;52.956;4.772;2023-03-23T01:02:00;100000.91;;;11.32;100.00
55490;BME280;44029;52.956;4.772;2023-03-23T01:04:26;99982.84;;;11.36;100.00
55490;BME280;44029;52.956;4.772;2023-03-23T01:06:53;99987.22;;;11.32;100.00
55490;BME280;44029;52.956;4.772;2023-03-23T01:09:19;99978.16;;;11.37;100.00
55490;BME280;44029;52.956;4.772;2023-03-23T01:11:49;99971.88;;;11.36;100.00
55490;BME280;44029;52.956;4.772;2023-03-23T01:14:17;99971.34;;;11.29;100.00
55490;BME280;44029;52.956;4.772;2023-03-23T01:16:42;99976.28;;;11.27;100.00
55490;BME280;44029;52.956;4.772;2023-03-23T01:19:08;99970.22;;;11.25;100.00
55490;BME280;44029;52.956;4.772;2023-03-23T01:21:35;99966.38;;;11.36;100.00
55490;BME280;44029;52.956;4.772;2023-03-23T01:24:00;99960.59;;;11.38;100.00
55490;BME280;44029;52.956;4.772;2023-03-23T01:26:27;99968.00;;;11.37;100.00
55490;BME280;44029;52.956;4.772;2023-03-23T01:28:53;99972.69;;;11.42;100.00
55490;BME280;44029;52.956;4.772;2023-03-23T01:31:22;99969.38;;;11.45;100.00
55490;BME280;44029;52.956;4.772;2023-03-23T01:33:47;99970.75;;;11.48;100.00
55490;BME280;44029;52.956;4.772;2023-03-23T01:36:19;99962.47;;;11.58;100.00
55490;BME280;44029;52.956;4.772;2023-03-23T01:38:47;99954.25;;;11.58;100.00
55490;BME280;44029;52.956;4.772;2023-03-23T01:41:14;99953.72;;;11.61;100.00
55490;BME280;44029;52.956;4.772;2023-03-23T01:46:41;99932.63;;;11.51;100.00
55490;BME280;44029;52.956;4.772;2023-03-23T01:49:19;99944.94;;;11.49;100.00
55490;BME280;44029;52.956;4.772;2023-03-23T01:51:49;99938.06;;;11.56;100.00
55490;BME280;44029;52.956;4.772;2023-03-23T01:54:19;99936.13;;;11.62;100.00
55490;BME280;44029;52.956;4.772;2023-03-23T01:56:56;99924.84;;;11.74;100.00
55490;BME280;44029;52.956;4.772;2023-03-23T01:59:24;99920.25;;;11.59;100.00
55490;BME280;44029;52.956;4.772;2023-03-23T02:01:53;99912.03;;;11.44;100.00
55490;BME280;44029;52.956;4.772;2023-03-23T02:04:20;99898.91;;;11.46;100.00
55490;BME280;44029;52.956;4.772;2023-03-23T02:06:47;99907.13;;;11.46;100.00
55490;BME280;44029;52.956;4.772;2023-03-23T02:09:12;99908.81;;;11.36;100.00
55490;BME280;44029;52.956;4.772;2023-03-23T02:11:44;99915.09;;;11.42;100.00
55490;BME280;44029;52.956;4.772;2023-03-23T02:14:11;99904.38;;;11.46;100.00
55490;BME280;44029;52.956;4.772;2023-03-23T02:16:57;99919.97;;;11.60;100.00
55490;BME280;44029;52.956;4.772;2023-03-23T02:19:55;99911.50;;;11.52;100.00
55490;BME280;44029;52.956;4.772;2023-03-23T02:25:44;99901.03;;;11.64;100.00
55490;BME280;44029;52.956;4.772;2023-03-23T02:35:52;99908.16;;;11.65;100.00
55490;BME280;44029;52.956;4.772;2023-03-23T02:38:28;99918.34;;;11.49;100.00
55490;BME280;44029;52.956;4.772;2023-03-23T02:40:56;99912.84;;;11.54;100.00
55490;BME280;44029;52.956;4.772;2023-03-23T02:43:27;99903.53;;;11.50;100.00
55490;BME280;44029;52.956;4.772;2023-03-23T02:45:54;99898.94;;;11.30;100.00
55490;BME280;44029;52.956;4.772;2023-03-23T02:48:24;99901.66;;;11.35;100.00
55490;BME280;44029;52.956;4.772;2023-03-23T02:50:52;99893.50;;;11.20;100.00
55490;BME280;44029;52.956;4.772;2023-03-23T02:53:21;99903.34;;;11.16;100.00
55490;BME280;44029;52.956;4.772;2023-03-23T02:55:48;99899.25;;;11.08;100.00
55490;BME280;44029;52.956;4.772;2023-03-23T02:58:14;99902.25;;;11.17;100.00
55490;BME280;44029;52.956;4.772;2023-03-23T03:00:39;99907.19;;;11.10;100.00
55490;BME280;44029;52.956;4.772;2023-03-23T03:03:09;99904.22;;;10.91;100.00
55490;BME280;44029;52.956;4.772;2023-03-23T03:11:08;99911.88;;;11.14;100.00
55490;BME280;44029;52.956;4.772;2023-03-23T03:21:46;99901.44;;;11.11;100.00
55490;BME280;44029;52.956;4.772;2023-03-23T03:24:15;99899.53;;;11.07;100.00
55490;BME280;44029;52.956;4.772;2023-03-23T03:26:45;99909.94;;;11.15;100.00
55490;BME280;44029;52.956;4.772;2023-03-23T03:29:13;99903.38;;;11.00;100.00
55490;BME280;44029;52.956;4.772;2023-03-23T03:31:40;99905.28;;;11.10;100.00
55490;BME280;44029;52.956;4.772;2023-03-23T03:34:11;99917.38;;;10.94;100.00
55490;BME280;44029;52.956;4.772;2023-03-23T03:36:37;99896.28;;;10.94;100.00
55490;BME280;44029;52.956;4.772;2023-03-23T03:39:05;99899.81;;;11.00;100.00
55490;BME280;44029;52.956;4.772;2023-03-23T03:41:33;99895.72;;;10.92;100.00
55490;BME280;44029;52.956;4.772;2023-03-23T03:43:59;99900.94;;;10.89;100.00
55490;BME280;44029;52.956;4.772;2023-03-23T03:46:24;99905.84;;;10.97;100.00
55490;BME280;44029;52.956;4.772;2023-03-23T03:48:52;99916.53;;;10.98;100.00
55490;BME280;44029;52.956;4.772;2023-03-23T03:51:17;99918.19;;;10.99;100.00
55490;BME280;44029;52.956;4.772;2023-03-23T03:53:43;99910.81;;;10.85;100.00
55490;BME280;44029;52.956;4.772;2023-03-23T03:56:08;99915.44;;;10.79;100.00
55490;BME280;44029;52.956;4.772;2023-03-23T03:58:33;99919.03;;;10.79;100.00
55490;BME280;44029;52.956;4.772;2023-03-23T04:01:02;99911.34;;;10.71;100.00
55490;BME280;44029;52.956;4.772;2023-03-23T04:03:27;99910.50;;;10.60;100.00
55490;BME280;44029;52.956;4.772;2023-03-23T04:05:56;99917.66;;;10.67;100.00
55490;BME280;44029;52.956;4.772;2023-03-23T04:08:24;99924.47;;;10.64;100.00
55490;BME280;44029;52.956;4.772;2023-03-23T04:10:51;99925.28;;;10.49;100.00
55490;BME280;44029;52.956;4.772;2023-03-23T04:13:17;99919.81;;;10.49;100.00
55490;BME280;44029;52.956;4.772;2023-03-23T04:15:44;99928.31;;;10.58;100.00
55490;BME280;44029;52.956;4.772;2023-03-23T04:18:10;99926.13;;;10.50;100.00
55490;BME280;44029;52.956;4.772;2023-03-23T04:20:36;99929.38;;;10.41;100.00
55490;BME280;44029;52.956;4.772;2023-03-23T04:23:02;99936.22;;;10.34;100.00
55490;BME280;44029;52.956;4.772;2023-03-23T04:25:28;99926.63;;;10.36;100.00
55490;BME280;44029;52.956;4.772;2023-03-23T04:27:54;99946.66;;;10.37;100.00
55490;BME280;44029;52.956;4.772;2023-03-23T04:30:21;99942.25;;;10.36;100.00
55490;BME280;44029;52.956;4.772;2023-03-23T04:32:49;99938.16;;;10.38;100.00
55490;BME280;44029;52.956;4.772;2023-03-23T04:35:16;99954.28;;;10.40;100.00
55490;BME280;44029;52.956;4.772;2023-03-23T04:37:42;99972.66;;;10.44;100.00
55490;BME280;44029;52.956;4.772;2023-03-23T04:40:09;99962.28;;;10.62;100.00
55490;BME280;44029;52.956;4.772;2023-03-23T04:42:38;99965.28;;;10.60;100.00
55490;BME280;44029;52.956;4.772;2023-03-23T04:45:05;99978.16;;;10.55;100.00
55490;BME280;44029;52.956;4.772;2023-03-23T04:47:33;99991.00;;;10.49;100.00
55490;BME280;44029;52.956;4.772;2023-03-23T04:49:59;99997.03;;;10.46;100.00
55490;BME280;44029;52.956;4.772;2023-03-23T04:52:26;99979.78;;;10.51;100.00
55490;BME280;44029;52.956;4.772;2023-03-23T04:54:53;99983.34;;;10.46;100.00
55490;BME280;44029;52.956;4.772;2023-03-23T04:57:21;99981.16;;;10.43;100.00
55490;BME280;44029;52.956;4.772;2023-03-23T04:59:46;99997.56;;;10.38;100.00
55490;BME280;44029;52.956;4.772;2023-03-23T05:02:13;100005.22;;;10.36;100.00
55490;BME280;44029;52.956;4.772;2023-03-23T05:04:39;99979.38;;;10.11;100.00
55490;BME280;44029;52.956;4.772;2023-03-23T05:07:06;99988.69;;;10.10;100.00
55490;BME280;44029;52.956;4.772;2023-03-23T05:09:32;99995.72;;;9.91;100.00
55490;BME280;44029;52.956;4.772;2023-03-23T05:12:03;99987.59;;;10.11;100.00
55490;BME280;44029;52.956;4.772;2023-03-23T05:14:29;99993.28;;;9.99;100.00
55490;BME280;44029;52.956;4.772;2023-03-23T05:16:54;99988.34;;;9.91;100.00
55490;BME280;44029;52.956;4.772;2023-03-23T05:19:20;99997.91;;;9.94;100.00
55490;BME280;44029;52.956;4.772;2023-03-23T05:21:45;99989.47;;;10.00;100.00
55490;BME280;44029;52.956;4.772;2023-03-23T05:24:10;99997.72;;;10.16;100.00
55490;BME280;44029;52.956;4.772;2023-03-23T05:26:36;100011.72;;;10.14;100.00
55490;BME280;44029;52.956;4.772;2023-03-23T05:29:01;100013.34;;;10.15;100.00
55490;BME280;44029;52.956;4.772;2023-03-23T05:31:26;100021.25;;;10.12;100.00
55490;BME280;44029;52.956;4.772;2023-03-23T05:33:52;100027.13;;;10.36;100.00
55490;BME280;44029;52.956;4.772;2023-03-23T05:36:18;100032.31;;;10.32;100.00
55490;BME280;44029;52.956;4.772;2023-03-23T05:38:43;100031.34;;;10.06;100.00
55490;BME280;44029;52.956;4.772;2023-03-23T05:41:14;100023.22;;;10.26;100.00
55490;BME280;44029;52.956;4.772;2023-03-23T05:43:40;100024.28;;;10.15;100.00
55490;BME280;44029;52.956;4.772;2023-03-23T05:46:06;100034.97;;;10.17;100.00
55490;BME280;44029;52.956;4.772;2023-03-23T05:48:33;100036.34;;;10.24;100.00
55490;BME280;44029;52.956;4.772;2023-03-23T05:50:59;100029.25;;;10.29;100.00
55490;BME280;44029;52.956;4.772;2023-03-23T05:53:24;100035.53;;;10.24;100.00
55490;BME280;44029;52.956;4.772;2023-03-23T05:55:51;100045.09;;;10.21;100.00
55490;BME280;44029;52.956;4.772;2023-03-23T05:58:16;100050.03;;;10.24;100.00
55490;BME280;44029;52.956;4.772;2023-03-23T06:00:41;100050.28;;;10.13;100.00
55490;BME280;44029;52.956;4.772;2023-03-23T06:03:07;100058.13;;;9.99;100.00
55490;BME280;44029;52.956;4.772;2023-03-23T06:05:33;100054.06;;;10.06;100.00
55490;BME280;44029;52.956;4.772;2023-03-23T06:07:58;100065.84;;;10.12;100.00
55490;BME280;44029;52.956;4.772;2023-03-23T06:10:24;100060.69;;;10.16;100.00
55490;BME280;44029;52.956;4.772;2023-03-23T06:12:50;100070.91;;;10.31;100.00
55490;BME280;44029;52.956;4.772;2023-03-23T06:15:16;100084.06;;;10.34;100.00
55490;BME280;44029;52.956;4.772;2023-03-23T06:17:42;100089.75;;;10.27;100.00
55490;BME280;44029;52.956;4.772;2023-03-23T06:20:07;100093.03;;;10.24;100.00
55490;BME280;44029;52.956;4.772;2023-03-23T06:22:35;100097.69;;;10.23;100.00
55490;BME280;44029;52.956;4.772;2023-03-23T06:25:00;100101.44;;;10.12;100.00
55490;BME280;44029;52.956;4.772;2023-03-23T06:27:26;100116.53;;;10.15;100.00
55490;BME280;44029;52.956;4.772;2023-03-23T06:29:52;100117.94;;;10.22;100.00
55490;BME280;44029;52.956;4.772;2023-03-23T06:32:17;100117.69;;;10.29;100.00
55490;BME280;44029;52.956;4.772;2023-03-23T06:34:43;100121.22;;;10.24;100.00
55490;BME280;44029;52.956;4.772;2023-03-23T06:37:10;100118.13;;;10.63;100.00
55490;BME280;44029;52.956;4.772;2023-03-23T06:39:36;100125.28;;;10.75;100.00
55490;BME280;44029;52.956;4.772;2023-03-23T06:42:03;100110.28;;;10.98;100.00
55490;BME280;44029;52.956;4.772;2023-03-23T06:44:29;100118.53;;;10.98;100.00
55490;BME280;44029;52.956;4.772;2023-03-23T06:46:54;100108.94;;;11.06;100.00
55490;BME280;44029;52.956;4.772;2023-03-23T06:49:20;100109.72;;;10.91;100.00
55490;BME280;44029;52.956;4.772;2023-03-23T06:51:45;100126.66;;;10.72;100.00
55490;BME280;44029;52.956;4.772;2023-03-23T06:54:10;100116.31;;;11.00;100.00
55490;BME280;44029;52.956;4.772;2023-03-23T06:56:36;100126.13;;;10.80;100.00
55490;BME280;44029;52.956;4.772;2023-03-23T06:59:01;100111.69;;;11.21;100.00
55490;BME280;44029;52.956;4.772;2023-03-23T07:01:27;100104.84;;;11.65;100.00
55490;BME280;44029;52.956;4.772;2023-03-23T07:03:54;100089.78;;;11.52;100.00
55490;BME280;44029;52.956;4.772;2023-03-23T07:06:21;100095.25;;;11.83;100.00
55490;BME280;44029;52.956;4.772;2023-03-23T07:08:47;100088.09;;;11.87;100.00
55490;BME280;44029;52.956;4.772;2023-03-23T07:11:12;100088.94;;;11.67;100.00
55490;BME280;44029;52.956;4.772;2023-03-23T07:13:38;100084.81;;;12.00;100.00
55490;BME280;44029;52.956;4.772;2023-03-23T07:16:07;100089.44;;;12.75;100.00
55490;BME280;44029;52.956;4.772;2023-03-23T07:18:32;100082.34;;;13.08;100.00
55490;BME280;44029;52.956;4.772;2023-03-23T07:20:58;100082.22;;;13.63;100.00
55490;BME280;44029;52.956;4.772;2023-03-23T07:23:24;100070.78;;;14.04;100.00
55490;BME280;44029;52.956;4.772;2023-03-23T07:25:49;100075.81;;;13.97;100.00
55490;BME280;44029;52.956;4.772;2023-03-23T07:28:15;100072.88;;;14.42;100.00
55490;BME280;44029;52.956;4.772;2023-03-23T07:30:41;100066.59;;;14.98;100.00
55490;BME280;44029;52.956;4.772;2023-03-23T07:33:07;100068.84;;;14.53;100.00
55490;BME280;44029;52.956;4.772;2023-03-23T07:35:33;100078.66;;;14.40;100.00
55490;BME280;44029;52.956;4.772;2023-03-23T07:38:00;100079.50;;;13.58;100.00
55490;BME280;44029;52.956;4.772;2023-03-23T07:40:26;100079.66;;;14.01;100.00
55490;BME280;44029;52.956;4.772;2023-03-23T07:42:54;100082.69;;;14.72;100.00
55490;BME280;44029;52.956;4.772;2023-03-23T07:45:20;100079.00;;;14.58;100.00
55490;BME280;44029;52.956;4.772;2023-03-23T07:47:46;100083.72;;;14.95;100.00
55490;BME280;44029;52.956;4.772;2023-03-23T07:50:11;100083.50;;;15.30;100.00
55490;BME280;44029;52.956;4.772;2023-03-23T07:52:38;100089.22;;;15.99;100.00
55490;BME280;44029;52.956;4.772;2023-03-23T07:55:04;100083.81;;;15.61;100.00
55490;BME280;44029;52.956;4.772;2023-03-23T07:57:30;100094.41;;;15.54;100.00
55490;BME280;44029;52.956;4.772;2023-03-23T07:59:56;100089.66;;;15.73;100.00
55490;BME280;44029;52.956;4.772;2023-03-23T08:02:23;100094.34;;;15.92;100.00
55490;BME280;44029;52.956;4.772;2023-03-23T08:04:49;100097.06;;;15.78;100.00
55490;BME280;44029;52.956;4.772;2023-03-23T08:07:14;100100.66;;;14.88;100.00
55490;BME280;44029;52.956;4.772;2023-03-23T08:09:42;100105.75;;;14.33;100.00
55490;BME280;44029;52.956;4.772;2023-03-23T08:12:07;100111.34;;;14.23;100.00
55490;BME280;44029;52.956;4.772;2023-03-23T08:14:32;100114.81;;;14.09;100.00
55490;BME280;44029;52.956;4.772;2023-03-23T08:16:58;100120.03;;;14.35;100.00
55490;BME280;44029;52.956;4.772;2023-03-23T08:19:24;100112.59;;;15.03;100.00
55490;BME280;44029;52.956;4.772;2023-03-23T08:21:49;100114.81;;;15.01;100.00
55490;BME280;44029;52.956;4.772;2023-03-23T08:24:15;100114.91;;;15.15;100.00
55490;BME280;44029;52.956;4.772;2023-03-23T08:26:41;100114.00;;;15.38;100.00
55490;BME280;44029;52.956;4.772;2023-03-23T08:29:06;100107.63;;;15.38;100.00
55490;BME280;44029;52.956;4.772;2023-03-23T08:31:32;100115.06;;;15.23;100.00
55490;BME280;44029;52.956;4.772;2023-03-23T08:33:59;100121.75;;;15.36;100.00
55490;BME280;44029;52.956;4.772;2023-03-23T08:36:26;100116.66;;;15.43;100.00
55490;BME280;44029;52.956;4.772;2023-03-23T08:38:52;100128.00;;;14.85;100.00
55490;BME280;44029;52.956;4.772;2023-03-23T08:41:18;100132.94;;;15.26;100.00
55490;BME280;44029;52.956;4.772;2023-03-23T08:43:44;100120.41;;;15.34;100.00
55490;BME280;44029;52.956;4.772;2023-03-23T08:46:10;100132.97;;;15.59;100.00
55490;BME280;44029;52.956;4.772;2023-03-23T08:48:36;100137.69;;;15.91;100.00
55490;BME280;44029;52.956;4.772;2023-03-23T08:51:05;100132.94;;;15.26;100.00
55490;BME280;44029;52.956;4.772;2023-03-23T08:53:30;100141.41;;;14.92;100.00
55490;BME280;44029;52.956;4.772;2023-03-23T08:56:01;100137.19;;;15.18;100.00
55490;BME280;44029;52.956;4.772;2023-03-23T08:58:27;100142.13;;;15.40;100.00
55490;BME280;44029;52.956;4.772;2023-03-23T09:00:53;100154.25;;;15.01;100.00
55490;BME280;44029;52.956;4.772;2023-03-23T09:03:19;100154.38;;;14.72;100.00
55490;BME280;44029;52.956;4.772;2023-03-23T09:05:44;100152.53;;;14.86;100.00
55490;BME280;44029;52.956;4.772;2023-03-23T09:08:11;100157.16;;;15.10;100.00
55490;BME280;44029;52.956;4.772;2023-03-23T09:10:37;100162.03;;;14.51;100.00
55490;BME280;44029;52.956;4.772;2023-03-23T09:13:04;100165.59;;;13.98;100.00
55490;BME280;44029;52.956;4.772;2023-03-23T09:15:31;100166.69;;;13.97;100.00
55490;BME280;44029;52.956;4.772;2023-03-23T09:17:57;100168.03;;;13.70;100.00
55490;BME280;44029;52.956;4.772;2023-03-23T09:20:24;100170.09;;;13.89;100.00
55490;BME280;44029;52.956;4.772;2023-03-23T09:22:52;100173.81;;;14.03;100.00
55490;BME280;44029;52.956;4.772;2023-03-23T09:25:20;100172.66;;;14.09;100.00
55490;BME280;44029;52.956;4.772;2023-03-23T09:27:49;100169.56;;;13.87;100.00
55490;BME280;44029;52.956;4.772;2023-03-23T09:30:18;100176.09;;;13.62;100.00
55490;BME280;44029;52.956;4.772;2023-03-23T09:32:44;100178.16;;;13.46;100.00
55490;BME280;44029;52.956;4.772;2023-03-23T09:35:10;100180.13;;;13.30;100.00
55490;BME280;44029;52.956;4.772;2023-03-23T09:37:39;100173.50;;;13.76;100.00
55490;BME280;44029;52.956;4.772;2023-03-23T09:40:09;100179.78;;;13.81;100.00
55490;BME280;44029;52.956;4.772;2023-03-23T09:49:05;100190.06;;;13.70;100.00
55490;BME280;44029;52.956;4.772;2023-03-23T09:54:38;100193.34;;;13.38;100.00
55490;BME280;44029;52.956;4.772;2023-03-23T09:57:11;100208.13;;;13.47;100.00
55490;BME280;44029;52.956;4.772;2023-03-23T09:59:52;100198.28;;;13.36;100.00
55490;BME280;44029;52.956;4.772;2023-03-23T10:02:32;100209.88;;;13.23;100.00
55490;BME280;44029;52.956;4.772;2023-03-23T10:07:56;100204.88;;;13.30;100.00
55490;BME280;44029;52.956;4.772;2023-03-23T10:10:29;100204.50;;;13.52;100.00
55490;BME280;44029;52.956;4.772;2023-03-23T10:13:27;100206.38;;;13.62;100.00
55490;BME280;44029;52.956;4.772;2023-03-23T10:15:57;100204.34;;;13.38;100.00
55490;BME280;44029;52.956;4.772;2023-03-23T10:18:37;100199.13;;;13.26;100.00
55490;BME280;44029;52.956;4.772;2023-03-23T10:21:05;100200.84;;;13.12;100.00
55490;BME280;44029;52.956;4.772;2023-03-23T10:23:44;100204.38;;;13.23;100.00
55490;BME280;44029;52.956;4.772;2023-03-23T10:26:26;100206.28;;;13.32;100.00
55490;BME280;44029;52.956;4.772;2023-03-23T10:29:01;100211.84;;;13.17;100.00
55490;BME280;44029;52.956;4.772;2023-03-23T10:31:36;100209.19;;;13.51;100.00
55490;BME280;44029;52.956;4.772;2023-03-23T10:34:08;100207.81;;;13.49;100.00
55490;BME280;44029;52.956;4.772;2023-03-23T10:36:38;100213.41;;;13.39;100.00
55490;BME280;44029;52.956;4.772;2023-03-23T10:39:19;100212.00;;;13.41;100.00
55490;BME280;44029;52.956;4.772;2023-03-23T10:41:46;100221.69;;;13.33;100.00
55490;BME280;44029;52.956;4.772;2023-03-23T10:44:19;100214.53;;;13.32;100.00
55490;BME280;44029;52.956;4.772;2023-03-23T10:46:57;100220.88;;;13.33;100.00
55490;BME280;44029;52.956;4.772;2023-03-23T10:49:27;100224.72;;;13.32;100.00
55490;BME280;44029;52.956;4.772;2023-03-23T10:52:04;100218.13;;;13.33;100.00
55490;BME280;44029;52.956;4.772;2023-03-23T10:54:36;100220.03;;;13.27;100.00
55490;BME280;44029;52.956;4.772;2023-03-23T10:57:11;100231.53;;;13.45;100.00
55490;BME280;44029;52.956;4.772;2023-03-23T10:59:39;100225.28;;;13.29;100.00
55490;BME280;44029;52.956;4.772;2023-03-23T11:02:14;100209.75;;;13.48;100.00
55490;BME280;44029;52.956;4.772;2023-03-23T11:04:59;100220.28;;;13.36;100.00
55490;BME280;44029;52.956;4.772;2023-03-23T11:07:29;100226.63;;;13.26;100.00
55490;BME280;44029;52.956;4.772;2023-03-23T11:09:57;100235.22;;;13.20;100.00
55490;BME280;44029;52.956;4.772;2023-03-23T11:12:24;100231.88;;;13.23;100.00
55490;BME280;44029;52.956;4.772;2023-03-23T11:14:49;100237.63;;;13.37;100.00
55490;BME280;44029;52.956;4.772;2023-03-23T11:17:26;100242.88;;;13.33;100.00
55490;BME280;44029;52.956;4.772;2023-03-23T11:19:53;100241.78;;;13.29;100.00
55490;BME280;44029;52.956;4.772;2023-03-23T11:22:31;100245.91;;;13.26;100.00
55490;BME280;44029;52.956;4.772;2023-03-23T11:25:02;100246.41;;;13.39;100.00
55490;BME280;44029;52.956;4.772;2023-03-23T11:27:28;100237.09;;;13.29;100.00
55490;BME280;44029;52.956;4.772;2023-03-23T11:30:00;100257.69;;;13.37;100.00
55490;BME280;44029;52.956;4.772;2023-03-23T11:32:29;100254.16;;;13.31;100.00
55490;BME280;44029;52.956;4.772;2023-03-23T11:35:00;100260.09;;;13.49;100.00
55490;BME280;44029;52.956;4.772;2023-03-23T11:40:00;100265.34;;;13.45;100.00
55490;BME280;44029;52.956;4.772;2023-03-23T11:42:38;100258.94;;;13.60;100.00
55490;BME280;44029;52.956;4.772;2023-03-23T11:45:25;100261.38;;;13.67;100.00
55490;BME280;44029;52.956;4.772;2023-03-23T11:50:29;100259.53;;;13.57;100.00
55490;BME280;44029;52.956;4.772;2023-03-23T11:53:15;100250.69;;;13.60;100.00
55490;BME280;44029;52.956;4.772;2023-03-23T11:58:16;100262.56;;;13.56;100.00
55490;BME280;44029;52.956;4.772;2023-03-23T12:00:49;100255.97;;;13.57;100.00
55490;BME280;44029;52.956;4.772;2023-03-23T12:03:17;100260.94;;;13.49;100.00
55490;BME280;44029;52.956;4.772;2023-03-23T12:08:30;100261.47;;;13.51;100.00
55490;BME280;44029;52.956;4.772;2023-03-23T12:11:11;100254.06;;;13.47;100.00
55490;BME280;44029;52.956;4.772;2023-03-23T12:18:59;100247.91;;;13.60;100.00
55490;BME280;44029;52.956;4.772;2023-03-23T12:26:56;100247.25;;;13.79;100.00
55490;BME280;44029;52.956;4.772;2023-03-23T12:29:35;100249.16;;;13.83;100.00
55490;BME280;44029;52.956;4.772;2023-03-23T12:35:21;100247.75;;;13.86;100.00
55490;BME280;44029;52.956;4.772;2023-03-23T12:38:07;100241.03;;;14.02;100.00
55490;BME280;44029;52.956;4.772;2023-03-23T12:48:39;100229.78;;;14.28;100.00
55490;BME280;44029;52.956;4.772;2023-03-23T12:51:12;101192.63;;;24.81;100.00
55490;BME280;44029;52.956;4.772;2023-03-23T12:53:58;68158.66;;;-147.32;100.00
55490;BME280;44029;52.956;4.772;2023-03-23T12:59:25;68158.66;;;-147.32;100.00
55490;BME280;44029;52.956;4.772;2023-03-23T13:01:59;68158.66;;;-147.32;100.00
55490;BME280;44029;52.956;4.772;2023-03-23T13:04:32;68158.66;;;-147.32;100.00
55490;BME280;44029;52.956;4.772;2023-03-23T13:07:00;68158.66;;;-147.32;100.00
55490;BME280;44029;52.956;4.772;2023-03-23T13:09:49;68158.66;;;-147.32;100.00
55490;BME280;44029;52.956;4.772;2023-03-23T13:12:16;68158.66;;;-147.32;100.00
55490;BME280;44029;52.956;4.772;2023-03-23T13:15:02;68158.66;;;-147.32;100.00
55490;BME280;44029;52.956;4.772;2023-03-23T13:23:04;68158.66;;;-147.32;100.00
55490;BME280;44029;52.956;4.772;2023-03-23T13:28:00;68158.66;;;-147.32;100.00
55490;BME280;44029;52.956;4.772;2023-03-23T13:30:29;68158.66;;;-147.32;100.00
55490;BME280;44029;52.956;4.772;2023-03-23T13:33:06;68158.66;;;-147.32;100.00
55490;BME280;44029;52.956;4.772;2023-03-23T13:35:40;68158.66;;;-147.32;100.00
55490;BME280;44029;52.956;4.772;2023-03-23T13:38:23;68158.66;;;-147.32;100.00
55490;BME280;44029;52.956;4.772;2023-03-23T13:40:50;68158.66;;;-147.32;100.00
55490;BME280;44029;52.956;4.772;2023-03-23T13:43:29;68158.66;;;-147.32;100.00
55490;BME280;44029;52.956;4.772;2023-03-23T13:46:24;68158.66;;;-147.32;100.00
55490;BME280;44029;52.956;4.772;2023-03-23T13:49:22;68158.66;;;-147.32;100.00
55490;BME280;44029;52.956;4.772;2023-03-23T13:54:20;68158.66;;;-147.32;100.00
55490;BME280;44029;52.956;4.772;2023-03-23T13:56:52;68158.66;;;-147.32;100.00
55490;BME280;44029;52.956;4.772;2023-03-23T13:59:46;68158.66;;;-147.32;100.00
55490;BME280;44029;52.956;4.772;2023-03-23T14:02:31;68158.66;;;-147.32;100.00
55490;BME280;44029;52.956;4.772;2023-03-23T14:05:09;68158.66;;;-147.32;100.00
55490;BME280;44029;52.956;4.772;2023-03-23T14:10:53;68158.66;;;-147.32;100.00
55490;BME280;44029;52.956;4.772;2023-03-23T14:13:25;68158.66;;;-147.32;100.00
55490;BME280;44029;52.956;4.772;2023-03-23T14:15:59;68158.66;;;-147.32;100.00
55490;BME280;44029;52.956;4.772;2023-03-23T14:18:37;68158.66;;;-147.32;100.00
55490;BME280;44029;52.956;4.772;2023-03-23T14:21:05;68158.66;;;-147.32;100.00